sensor_id;sensor_type;location;lat;lon;timestamp;P1;durP1;ratioP1;P2;durP2;ratioP2
16593;SDS011;8410;52.532;13.336;2023-11-19T00:00:07;17.27;;;15.10;;
16593;SDS011;8410;52.532;13.336;2023-11-19T00:02:39;15.57;;;13.93;;
16593;SDS011;8410;52.532;13.336;2023-11-19T00:05:08;22.27;;;17.27;;
16593;SDS011;8410;52.532;13.336;2023-11-19T00:07:38;15.10;;;12.10;;
16593;SDS011;8410;52.532;13.336;2023-11-19T00:10:07;10.97;;;9.87;;
16593;SDS011;8410;52.532;13.336;2023-11-19T00:12:36;15.93;;;14.23;;
16593;SDS011;8410;52.532;13.336;2023-11-19T00:15:05;15.07;;;12.27;;
16593;SDS011;8410;52.532;13.336;2023-11-19T00:17:37;18.47;;;15.23;;
16593;SDS011;8410;52.532;13.336;2023-11-19T00:20:08;13.00;;;11.57;;
16593;SDS011;8410;52.532;13.336;2023-11-19T00:22:36;10.73;;;9.73;;
16593;SDS011;8410;52.532;13.336;2023-11-19T00:25:14;14.67;;;12.23;;
16593;SDS011;8410;52.532;13.336;2023-11-19T00:27:42;14.40;;;11.43;;
16593;SDS011;8410;52.532;13.336;2023-11-19T00:30:11;18.10;;;15.47;;
16593;SDS011;8410;52.532;13.336;2023-11-19T00:32:40;18.77;;;15.73;;
16593;SDS011;8410;52.532;13.336;2023-11-19T00:35:09;15.93;;;13.97;;
16593;SDS011;8410;52.532;13.336;2023-11-19T00:37:37;29.10;;;23.50;;
16593;SDS011;8410;52.532;13.336;2023-11-19T00:40:05;17.40;;;14.37;;
16593;SDS011;8410;52.532;13.336;2023-11-19T00:42:34;9.30;;;8.03;;
16593;SDS011;8410;52.532;13.336;2023-11-19T00:45:02;26.40;;;18.60;;
16593;SDS011;8410;52.532;13.336;2023-11-19T00:47:30;14.63;;;12.50;;
16593;SDS011;8410;52.532;13.336;2023-11-19T00:49:58;23.83;;;20.10;;
16593;SDS011;8410;52.532;13.336;2023-11-19T00:52:27;29.53;;;22.57;;
16593;SDS011;8410;52.532;13.336;2023-11-19T00:54:54;29.03;;;21.90;;
16593;SDS011;8410;52.532;13.336;2023-11-19T00:57:23;31.47;;;24.00;;
16593;SDS011;8410;52.532;13.336;2023-11-19T00:59:52;25.23;;;20.43;;
16593;SDS011;8410;52.532;13.336;2023-11-19T01:02:20;44.63;;;33.83;;
16593;SDS011;8410;52.532;13.336;2023-11-19T01:04:47;14.33;;;12.50;;
16593;SDS011;8410;52.532;13.336;2023-11-19T01:07:15;18.87;;;15.60;;
16593;SDS011;8410;52.532;13.336;2023-11-19T01:09:44;23.73;;;18.90;;
16593;SDS011;8410;52.532;13.336;2023-11-19T01:12:11;19.27;;;14.90;;
16593;SDS011;8410;52.532;13.336;2023-11-19T01:14:39;18.10;;;15.07;;
16593;SDS011;8410;52.532;13.336;2023-11-19T01:17:06;12.07;;;10.00;;
16593;SDS011;8410;52.532;13.336;2023-11-19T01:19:35;11.30;;;10.13;;
16593;SDS011;8410;52.532;13.336;2023-11-19T01:22:03;14.27;;;12.53;;
16593;SDS011;8410;52.532;13.336;2023-11-19T01:24:29;9.73;;;8.73;;
16593;SDS011;8410;52.532;13.336;2023-11-19T01:26:59;35.73;;;27.57;;
16593;SDS011;8410;52.532;13.336;2023-11-19T01:29:27;29.70;;;22.77;;
16593;SDS011;8410;52.532;13.336;2023-11-19T01:31:54;15.77;;;13.50;;
16593;SDS011;8410;52.532;13.336;2023-11-19T01:34:22;13.87;;;12.37;;
16593;SDS011;8410;52.532;13.336;2023-11-19T01:36:49;26.90;;;21.43;;
16593;SDS011;8410;52.532;13.336;2023-11-19T01:39:17;9.47;;;8.43;;
16593;SDS011;8410;52.532;13.336;2023-11-19T01:41:46;16.33;;;13.73;;
16593;SDS011;8410;52.532;13.336;2023-11-19T01:44:15;16.33;;;13.20;;
16593;SDS011;8410;52.532;13.336;2023-11-19T01:46:44;12.23;;;9.57;;
16593;SDS011;8410;52.532;13.336;2023-11-19T01:49:13;12.93;;;10.73;;
16593;SDS011;8410;52.532;13.336;2023-11-19T01:51:43;11.67;;;10.07;;
16593;SDS011;8410;52.532;13.336;2023-11-19T01:54:10;10.33;;;8.80;;
16593;SDS011;8410;52.532;13.336;2023-11-19T01:56:39;14.70;;;11.63;;
16593;SDS011;8410;52.532;13.336;2023-11-19T01:59:07;11.70;;;9.07;;
16593;SDS011;8410;52.532;13.336;2023-11-19T02:01:40;24.80;;;20.07;;
16593;SDS011;8410;52.532;13.336;2023-11-19T02:04:09;13.67;;;11.83;;
16593;SDS011;8410;52.532;13.336;2023-11-19T02:06:37;25.53;;;19.27;;
16593;SDS011;8410;52.532;13.336;2023-11-19T02:09:07;15.90;;;12.80;;
16593;SDS011;8410;52.532;13.336;2023-11-19T02:11:35;15.93;;;12.93;;
16593;SDS011;8410;52.532;13.336;2023-11-19T02:14:03;15.90;;;13.57;;
16593;SDS011;8410;52.532;13.336;2023-11-19T02:16:31;17.70;;;14.37;;
16593;SDS011;8410;52.532;13.336;2023-11-19T02:19:00;13.00;;;11.23;;
16593;SDS011;8410;52.532;13.336;2023-11-19T02:21:27;17.10;;;13.63;;
16593;SDS011;8410;52.532;13.336;2023-11-19T02:23:55;11.70;;;10.50;;
16593;SDS011;8410;52.532;13.336;2023-11-19T02:26:36;25.00;;;17.63;;
16593;SDS011;8410;52.532;13.336;2023-11-19T02:29:08;11.57;;;9.90;;
16593;SDS011;8410;52.532;13.336;2023-11-19T02:31:36;12.60;;;9.27;;
16593;SDS011;8410;52.532;13.336;2023-11-19T02:34:03;15.70;;;12.33;;
16593;SDS011;8410;52.532;13.336;2023-11-19T02:36:32;11.87;;;9.77;;
16593;SDS011;8410;52.532;13.336;2023-11-19T02:38:59;12.77;;;10.00;;
16593;SDS011;8410;52.532;13.336;2023-11-19T02:41:27;16.23;;;13.17;;
16593;SDS011;8410;52.532;13.336;2023-11-19T02:43:55;13.07;;;11.33;;
16593;SDS011;8410;52.532;13.336;2023-11-19T02:46:24;18.67;;;15.70;;
16593;SDS011;8410;52.532;13.336;2023-11-19T02:48:52;14.40;;;12.20;;
16593;SDS011;8410;52.532;13.336;2023-11-19T02:51:20;10.90;;;9.53;;
16593;SDS011;8410;52.532;13.336;2023-11-19T02:53:48;9.37;;;7.73;;
16593;SDS011;8410;52.532;13.336;2023-11-19T02:56:15;12.80;;;11.27;;
16593;SDS011;8410;52.532;13.336;2023-11-19T02:58:46;10.13;;;8.70;;
16593;SDS011;8410;52.532;13.336;2023-11-19T03:01:21;12.77;;;11.03;;
16593;SDS011;8410;52.532;13.336;2023-11-19T03:03:57;16.17;;;13.30;;
16593;SDS011;8410;52.532;13.336;2023-11-19T03:06:25;12.83;;;9.97;;
16593;SDS011;8410;52.532;13.336;2023-11-19T03:08:54;17.30;;;12.30;;
16593;SDS011;8410;52.532;13.336;2023-11-19T03:11:21;8.93;;;7.70;;
16593;SDS011;8410;52.532;13.336;2023-11-19T03:13:49;11.33;;;9.30;;
16593;SDS011;8410;52.532;13.336;2023-11-19T03:16:16;17.13;;;14.17;;
16593;SDS011;8410;52.532;13.336;2023-11-19T03:18:44;10.30;;;9.10;;
16593;SDS011;8410;52.532;13.336;2023-11-19T03:21:13;10.53;;;9.13;;
16593;SDS011;8410;52.532;13.336;2023-11-19T03:23:41;8.67;;;7.57;;
16593;SDS011;8410;52.532;13.336;2023-11-19T03:26:10;10.70;;;9.53;;
16593;SDS011;8410;52.532;13.336;2023-11-19T03:28:37;8.97;;;7.63;;
16593;SDS011;8410;52.532;13.336;2023-11-19T03:31:05;8.07;;;7.23;;
16593;SDS011;8410;52.532;13.336;2023-11-19T03:33:34;16.13;;;12.87;;
16593;SDS011;8410;52.532;13.336;2023-11-19T03:36:04;18.87;;;14.77;;
16593;SDS011;8410;52.532;13.336;2023-11-19T03:38:33;6.90;;;6.20;;
16593;SDS011;8410;52.532;13.336;2023-11-19T03:41:01;11.53;;;9.63;;
16593;SDS011;8410;52.532;13.336;2023-11-19T03:43:30;8.13;;;7.07;;
16593;SDS011;8410;52.532;13.336;2023-11-19T03:45:59;9.03;;;7.77;;
16593;SDS011;8410;52.532;13.336;2023-11-19T03:48:27;12.30;;;10.67;;
16593;SDS011;8410;52.532;13.336;2023-11-19T03:50:54;10.07;;;8.63;;
16593;SDS011;8410;52.532;13.336;2023-11-19T03:53:22;16.00;;;11.87;;
16593;SDS011;8410;52.532;13.336;2023-11-19T03:55:51;10.73;;;9.13;;
16593;SDS011;8410;52.532;13.336;2023-11-19T03:58:19;7.83;;;6.40;;
16593;SDS011;8410;52.532;13.336;2023-11-19T04:00:46;10.83;;;8.97;;
16593;SDS011;8410;52.532;13.336;2023-11-19T04:03:14;10.80;;;8.73;;
16593;SDS011;8410;52.532;13.336;2023-11-19T04:05:41;11.87;;;9.90;;
16593;SDS011;8410;52.532;13.336;2023-11-19T04:08:09;10.37;;;8.17;;
16593;SDS011;8410;52.532;13.336;2023-11-19T04:10:36;6.50;;;5.90;;
16593;SDS011;8410;52.532;13.336;2023-11-19T04:13:05;10.80;;;8.03;;
16593;SDS011;8410;52.532;13.336;2023-11-19T04:15:33;14.57;;;11.73;;
16593;SDS011;8410;52.532;13.336;2023-11-19T04:18:01;10.83;;;9.40;;
16593;SDS011;8410;52.532;13.336;2023-11-19T04:20:29;10.07;;;9.03;;
16593;SDS011;8410;52.532;13.336;2023-11-19T04:22:57;10.13;;;9.10;;
16593;SDS011;8410;52.532;13.336;2023-11-19T04:25:26;10.87;;;9.23;;
16593;SDS011;8410;52.532;13.336;2023-11-19T04:27:55;9.50;;;8.67;;
16593;SDS011;8410;52.532;13.336;2023-11-19T04:30:23;17.23;;;14.63;;
16593;SDS011;8410;52.532;13.336;2023-11-19T04:32:51;11.43;;;10.23;;
16593;SDS011;8410;52.532;13.336;2023-11-19T04:35:19;31.97;;;25.87;;
16593;SDS011;8410;52.532;13.336;2023-11-19T04:37:46;14.20;;;11.77;;
16593;SDS011;8410;52.532;13.336;2023-11-19T04:40:14;18.83;;;14.80;;
16593;SDS011;8410;52.532;13.336;2023-11-19T04:42:44;16.87;;;15.07;;
16593;SDS011;8410;52.532;13.336;2023-11-19T04:45:12;15.60;;;13.20;;
16593;SDS011;8410;52.532;13.336;2023-11-19T04:47:40;13.60;;;12.20;;
16593;SDS011;8410;52.532;13.336;2023-11-19T04:50:08;9.97;;;8.77;;
16593;SDS011;8410;52.532;13.336;2023-11-19T04:52:37;10.33;;;8.40;;
16593;SDS011;8410;52.532;13.336;2023-11-19T04:55:06;10.63;;;8.60;;
16593;SDS011;8410;52.532;13.336;2023-11-19T04:57:35;8.37;;;7.57;;
16593;SDS011;8410;52.532;13.336;2023-11-19T05:00:03;9.00;;;8.03;;
16593;SDS011;8410;52.532;13.336;2023-11-19T05:02:44;8.60;;;7.40;;
16593;SDS011;8410;52.532;13.336;2023-11-19T05:05:11;9.60;;;8.07;;
16593;SDS011;8410;52.532;13.336;2023-11-19T05:07:39;9.60;;;8.67;;
16593;SDS011;8410;52.532;13.336;2023-11-19T05:10:07;8.80;;;7.90;;
16593;SDS011;8410;52.532;13.336;2023-11-19T05:12:35;8.37;;;7.27;;
16593;SDS011;8410;52.532;13.336;2023-11-19T05:15:03;8.03;;;7.23;;
16593;SDS011;8410;52.532;13.336;2023-11-19T05:17:31;9.83;;;8.30;;
16593;SDS011;8410;52.532;13.336;2023-11-19T05:20:00;10.43;;;7.80;;
16593;SDS011;8410;52.532;13.336;2023-11-19T05:22:28;8.10;;;7.00;;
16593;SDS011;8410;52.532;13.336;2023-11-19T05:24:56;9.50;;;8.37;;
16593;SDS011;8410;52.532;13.336;2023-11-19T05:27:23;8.13;;;7.43;;
16593;SDS011;8410;52.532;13.336;2023-11-19T05:29:53;10.33;;;8.77;;
16593;SDS011;8410;52.532;13.336;2023-11-19T05:32:20;8.27;;;7.23;;
16593;SDS011;8410;52.532;13.336;2023-11-19T05:34:48;9.07;;;8.13;;
16593;SDS011;8410;52.532;13.336;2023-11-19T05:37:19;9.70;;;8.70;;
16593;SDS011;8410;52.532;13.336;2023-11-19T05:39:47;9.57;;;7.87;;
16593;SDS011;8410;52.532;13.336;2023-11-19T05:42:14;8.40;;;7.57;;
16593;SDS011;8410;52.532;13.336;2023-11-19T05:44:42;9.73;;;8.73;;
16593;SDS011;8410;52.532;13.336;2023-11-19T05:47:09;7.60;;;6.73;;
16593;SDS011;8410;52.532;13.336;2023-11-19T05:49:37;9.07;;;7.77;;
16593;SDS011;8410;52.532;13.336;2023-11-19T05:52:05;8.83;;;7.50;;
16593;SDS011;8410;52.532;13.336;2023-11-19T05:54:35;6.97;;;6.37;;
16593;SDS011;8410;52.532;13.336;2023-11-19T05:57:04;7.20;;;6.50;;
16593;SDS011;8410;52.532;13.336;2023-11-19T05:59:32;6.60;;;6.07;;
16593;SDS011;8410;52.532;13.336;2023-11-19T06:02:00;8.57;;;7.77;;
16593;SDS011;8410;52.532;13.336;2023-11-19T06:04:28;7.80;;;7.00;;
16593;SDS011;8410;52.532;13.336;2023-11-19T06:06:56;7.30;;;6.60;;
16593;SDS011;8410;52.532;13.336;2023-11-19T06:09:23;7.97;;;7.10;;
16593;SDS011;8410;52.532;13.336;2023-11-19T06:11:52;6.10;;;5.53;;
16593;SDS011;8410;52.532;13.336;2023-11-19T06:14:21;7.80;;;7.00;;
16593;SDS011;8410;52.532;13.336;2023-11-19T06:16:50;6.37;;;5.77;;
16593;SDS011;8410;52.532;13.336;2023-11-19T06:19:18;6.73;;;6.10;;
16593;SDS011;8410;52.532;13.336;2023-11-19T06:21:45;8.67;;;7.77;;
16593;SDS011;8410;52.532;13.336;2023-11-19T06:24:13;7.10;;;6.50;;
16593;SDS011;8410;52.532;13.336;2023-11-19T06:26:41;7.73;;;6.97;;
16593;SDS011;8410;52.532;13.336;2023-11-19T06:29:09;7.73;;;6.77;;
16593;SDS011;8410;52.532;13.336;2023-11-19T06:31:40;7.93;;;7.23;;
16593;SDS011;8410;52.532;13.336;2023-11-19T06:34:07;7.30;;;6.60;;
16593;SDS011;8410;52.532;13.336;2023-11-19T06:36:35;8.67;;;7.57;;
16593;SDS011;8410;52.532;13.336;2023-11-19T06:39:03;7.63;;;6.93;;
16593;SDS011;8410;52.532;13.336;2023-11-19T06:41:32;8.00;;;6.53;;
16593;SDS011;8410;52.532;13.336;2023-11-19T06:43:59;6.67;;;5.93;;
16593;SDS011;8410;52.532;13.336;2023-11-19T06:46:28;5.87;;;5.40;;
16593;SDS011;8410;52.532;13.336;2023-11-19T06:48:55;6.10;;;5.60;;
16593;SDS011;8410;52.532;13.336;2023-11-19T06:51:23;48.83;;;43.50;;
16593;SDS011;8410;52.532;13.336;2023-11-19T06:53:51;16.47;;;14.77;;
16593;SDS011;8410;52.532;13.336;2023-11-19T06:56:19;7.87;;;7.07;;
16593;SDS011;8410;52.532;13.336;2023-11-19T06:58:47;5.77;;;5.27;;
16593;SDS011;8410;52.532;13.336;2023-11-19T07:01:15;6.50;;;5.87;;
16593;SDS011;8410;52.532;13.336;2023-11-19T07:03:45;7.27;;;6.53;;
16593;SDS011;8410;52.532;13.336;2023-11-19T07:06:14;7.00;;;6.40;;
16593;SDS011;8410;52.532;13.336;2023-11-19T07:08:42;8.13;;;7.33;;
16593;SDS011;8410;52.532;13.336;2023-11-19T07:11:11;8.00;;;7.23;;
16593;SDS011;8410;52.532;13.336;2023-11-19T07:13:38;7.17;;;6.57;;
16593;SDS011;8410;52.532;13.336;2023-11-19T07:16:06;8.10;;;7.40;;
16593;SDS011;8410;52.532;13.336;2023-11-19T07:18:36;6.87;;;6.27;;
16593;SDS011;8410;52.532;13.336;2023-11-19T07:21:05;7.10;;;6.40;;
16593;SDS011;8410;52.532;13.336;2023-11-19T07:23:36;7.70;;;6.90;;
16593;SDS011;8410;52.532;13.336;2023-11-19T07:26:04;6.50;;;5.90;;
16593;SDS011;8410;52.532;13.336;2023-11-19T07:28:34;6.43;;;5.93;;
16593;SDS011;8410;52.532;13.336;2023-11-19T07:31:02;7.37;;;6.70;;
16593;SDS011;8410;52.532;13.336;2023-11-19T07:33:30;6.63;;;6.03;;
16593;SDS011;8410;52.532;13.336;2023-11-19T07:35:58;6.10;;;5.57;;
16593;SDS011;8410;52.532;13.336;2023-11-19T07:38:26;6.60;;;6.00;;
16593;SDS011;8410;52.532;13.336;2023-11-19T07:40:54;7.27;;;6.30;;
16593;SDS011;8410;52.532;13.336;2023-11-19T07:43:23;6.43;;;5.83;;
16593;SDS011;8410;52.532;13.336;2023-11-19T07:45:50;6.40;;;5.83;;
16593;SDS011;8410;52.532;13.336;2023-11-19T07:48:18;7.23;;;6.63;;
16593;SDS011;8410;52.532;13.336;2023-11-19T07:50:49;6.90;;;5.60;;
16593;SDS011;8410;52.532;13.336;2023-11-19T07:53:17;6.93;;;6.30;;
16593;SDS011;8410;52.532;13.336;2023-11-19T07:55:46;7.17;;;6.47;;
16593;SDS011;8410;52.532;13.336;2023-11-19T07:58:13;7.60;;;6.90;;
16593;SDS011;8410;52.532;13.336;2023-11-19T08:00:41;8.93;;;8.10;;
16593;SDS011;8410;52.532;13.336;2023-11-19T08:03:08;8.50;;;7.70;;
16593;SDS011;8410;52.532;13.336;2023-11-19T08:05:36;7.77;;;7.07;;
16593;SDS011;8410;52.532;13.336;2023-11-19T08:08:04;8.70;;;7.90;;
16593;SDS011;8410;52.532;13.336;2023-11-19T08:10:40;8.26;;;7.44;;
16593;SDS011;8410;52.532;13.336;2023-11-19T08:13:10;8.00;;;7.30;;
16593;SDS011;8410;52.532;13.336;2023-11-19T08:15:37;38.20;;;34.30;;
16593;SDS011;8410;52.532;13.336;2023-11-19T08:18:05;25.07;;;22.40;;
16593;SDS011;8410;52.532;13.336;2023-11-19T08:20:33;9.73;;;8.73;;
16593;SDS011;8410;52.532;13.336;2023-11-19T08:23:02;7.27;;;6.57;;
16593;SDS011;8410;52.532;13.336;2023-11-19T08:25:29;5.77;;;5.27;;
16593;SDS011;8410;52.532;13.336;2023-11-19T08:27:57;7.40;;;6.80;;
16593;SDS011;8410;52.532;13.336;2023-11-19T08:30:26;8.17;;;7.37;;
16593;SDS011;8410;52.532;13.336;2023-11-19T08:32:54;8.07;;;7.27;;
16593;SDS011;8410;52.532;13.336;2023-11-19T08:35:21;7.03;;;6.40;;
16593;SDS011;8410;52.532;13.336;2023-11-19T08:37:51;7.27;;;6.57;;
16593;SDS011;8410;52.532;13.336;2023-11-19T08:43:28;9.57;;;8.67;;
16593;SDS011;8410;52.532;13.336;2023-11-19T08:46:08;9.63;;;8.83;;
16593;SDS011;8410;52.532;13.336;2023-11-19T08:48:48;9.07;;;8.27;;
16593;SDS011;8410;52.532;13.336;2023-11-19T08:51:16;10.17;;;9.17;;
16593;SDS011;8410;52.532;13.336;2023-11-19T08:53:44;9.60;;;8.80;;
16593;SDS011;8410;52.532;13.336;2023-11-19T08:56:14;9.07;;;7.27;;
16593;SDS011;8410;52.532;13.336;2023-11-19T08:58:49;9.00;;;8.17;;
16593;SDS011;8410;52.532;13.336;2023-11-19T09:01:21;9.20;;;8.37;;
16593;SDS011;8410;52.532;13.336;2023-11-19T09:03:54;10.53;;;8.90;;
16593;SDS011;8410;52.532;13.336;2023-11-19T09:06:24;9.77;;;8.87;;
16593;SDS011;8410;52.532;13.336;2023-11-19T09:09:04;8.63;;;7.77;;
16593;SDS011;8410;52.532;13.336;2023-11-19T09:11:32;8.40;;;7.50;;
16593;SDS011;8410;52.532;13.336;2023-11-19T09:14:03;9.27;;;8.20;;
16593;SDS011;8410;52.532;13.336;2023-11-19T09:16:38;9.53;;;7.97;;
16593;SDS011;8410;52.532;13.336;2023-11-19T09:19:16;7.87;;;7.07;;
16593;SDS011;8410;52.532;13.336;2023-11-19T09:21:49;8.57;;;7.77;;
16593;SDS011;8410;52.532;13.336;2023-11-19T09:24:18;10.43;;;8.47;;
16593;SDS011;8410;52.532;13.336;2023-11-19T09:26:51;6.87;;;6.20;;
16593;SDS011;8410;52.532;13.336;2023-11-19T09:29:25;34.67;;;30.93;;
16593;SDS011;8410;52.532;13.336;2023-11-19T09:32:01;43.00;;;38.40;;
16593;SDS011;8410;52.532;13.336;2023-11-19T09:34:38;23.50;;;19.83;;
16593;SDS011;8410;52.532;13.336;2023-11-19T09:37:08;9.53;;;8.10;;
16593;SDS011;8410;52.532;13.336;2023-11-19T09:39:44;23.33;;;20.03;;
16593;SDS011;8410;52.532;13.336;2023-11-19T09:42:14;8.37;;;7.43;;
16593;SDS011;8410;52.532;13.336;2023-11-19T09:44:44;18.40;;;16.47;;
16593;SDS011;8410;52.532;13.336;2023-11-19T09:47:16;5.73;;;4.20;;
16593;SDS011;8410;52.532;13.336;2023-11-19T09:49:50;5.97;;;5.30;;
16593;SDS011;8410;52.532;13.336;2023-11-19T09:52:27;12.37;;;11.17;;
16593;SDS011;8410;52.532;13.336;2023-11-19T09:54:55;12.47;;;11.27;;
16593;SDS011;8410;52.532;13.336;2023-11-19T09:57:26;13.37;;;11.97;;
16593;SDS011;8410;52.532;13.336;2023-11-19T10:00:07;6.47;;;5.87;;
16593;SDS011;8410;52.532;13.336;2023-11-19T10:02:38;4.00;;;3.23;;
16593;SDS011;8410;52.532;13.336;2023-11-19T10:05:13;9.33;;;6.53;;
16593;SDS011;8410;52.532;13.336;2023-11-19T10:07:42;5.50;;;3.20;;
16593;SDS011;8410;52.532;13.336;2023-11-19T10:10:12;7.80;;;7.00;;
16593;SDS011;8410;52.532;13.336;2023-11-19T10:12:45;6.73;;;6.03;;
16593;SDS011;8410;52.532;13.336;2023-11-19T10:15:19;4.93;;;3.00;;
16593;SDS011;8410;52.532;13.336;2023-11-19T10:17:57;3.97;;;3.60;;
16593;SDS011;8410;52.532;13.336;2023-11-19T10:20:34;5.03;;;3.90;;
16593;SDS011;8410;52.532;13.336;2023-11-19T10:23:31;4.10;;;2.77;;
16593;SDS011;8410;52.532;13.336;2023-11-19T10:26:26;2.13;;;1.93;;
16593;SDS011;8410;52.532;13.336;2023-11-19T10:29:17;4.10;;;3.70;;
16593;SDS011;8410;52.532;13.336;2023-11-19T10:31:51;3.67;;;2.90;;
16593;SDS011;8410;52.532;13.336;2023-11-19T10:34:53;2.50;;;1.57;;
16593;SDS011;8410;52.532;13.336;2023-11-19T10:37:36;2.67;;;2.20;;
16593;SDS011;8410;52.532;13.336;2023-11-19T10:40:06;4.37;;;2.47;;
16593;SDS011;8410;52.532;13.336;2023-11-19T10:42:38;3.80;;;2.20;;
16593;SDS011;8410;52.532;13.336;2023-11-19T10:45:22;7.20;;;3.00;;
16593;SDS011;8410;52.532;13.336;2023-11-19T10:47:51;6.77;;;3.20;;
16593;SDS011;8410;52.532;13.336;2023-11-19T10:50:21;7.43;;;2.80;;
16593;SDS011;8410;52.532;13.336;2023-11-19T10:52:51;4.97;;;2.80;;
16593;SDS011;8410;52.532;13.336;2023-11-19T10:55:26;7.60;;;2.80;;
16593;SDS011;8410;52.532;13.336;2023-11-19T10:57:58;8.87;;;3.70;;
16593;SDS011;8410;52.532;13.336;2023-11-19T11:00:29;8.40;;;2.53;;
16593;SDS011;8410;52.532;13.336;2023-11-19T11:03:01;5.87;;;2.53;;
16593;SDS011;8410;52.532;13.336;2023-11-19T11:05:35;6.93;;;2.57;;
16593;SDS011;8410;52.532;13.336;2023-11-19T11:08:08;6.37;;;2.50;;
16593;SDS011;8410;52.532;13.336;2023-11-19T11:10:39;10.13;;;2.73;;
16593;SDS011;8410;52.532;13.336;2023-11-19T11:13:14;6.00;;;3.27;;
16593;SDS011;8410;52.532;13.336;2023-11-19T11:15:46;10.43;;;3.30;;
16593;SDS011;8410;52.532;13.336;2023-11-19T11:18:17;7.87;;;2.83;;
16593;SDS011;8410;52.532;13.336;2023-11-19T11:20:56;11.13;;;4.00;;
16593;SDS011;8410;52.532;13.336;2023-11-19T11:23:57;10.00;;;4.53;;
16593;SDS011;8410;52.532;13.336;2023-11-19T11:26:52;11.37;;;5.30;;
16593;SDS011;8410;52.532;13.336;2023-11-19T11:29:35;11.73;;;3.13;;
16593;SDS011;8410;52.532;13.336;2023-11-19T11:32:13;8.10;;;2.50;;
16593;SDS011;8410;52.532;13.336;2023-11-19T11:34:58;10.07;;;3.70;;
16593;SDS011;8410;52.532;13.336;2023-11-19T11:37:43;11.63;;;3.40;;
16593;SDS011;8410;52.532;13.336;2023-11-19T11:40:17;10.90;;;3.03;;
16593;SDS011;8410;52.532;13.336;2023-11-19T11:42:46;10.40;;;3.10;;
16593;SDS011;8410;52.532;13.336;2023-11-19T11:45:15;8.57;;;3.70;;
16593;SDS011;8410;52.532;13.336;2023-11-19T11:48:05;10.87;;;3.43;;
16593;SDS011;8410;52.532;13.336;2023-11-19T11:50:48;9.87;;;3.73;;
16593;SDS011;8410;52.532;13.336;2023-11-19T11:53:20;11.30;;;4.07;;
16593;SDS011;8410;52.532;13.336;2023-11-19T11:55:54;12.57;;;4.30;;
16593;SDS011;8410;52.532;13.336;2023-11-19T11:58:27;14.10;;;3.60;;
16593;SDS011;8410;52.532;13.336;2023-11-19T12:00:59;11.97;;;3.17;;
16593;SDS011;8410;52.532;13.336;2023-11-19T12:03:32;13.00;;;4.23;;
16593;SDS011;8410;52.532;13.336;2023-11-19T12:06:07;11.40;;;3.57;;
16593;SDS011;8410;52.532;13.336;2023-11-19T12:08:44;12.40;;;3.43;;
16593;SDS011;8410;52.532;13.336;2023-11-19T12:11:19;15.10;;;3.90;;
16593;SDS011;8410;52.532;13.336;2023-11-19T12:13:53;17.57;;;3.90;;
16593;SDS011;8410;52.532;13.336;2023-11-19T12:16:25;11.30;;;3.93;;
16593;SDS011;8410;52.532;13.336;2023-11-19T12:18:56;13.13;;;3.77;;
16593;SDS011;8410;52.532;13.336;2023-11-19T12:21:31;13.60;;;4.17;;
16593;SDS011;8410;52.532;13.336;2023-11-19T12:24:01;12.43;;;3.50;;
16593;SDS011;8410;52.532;13.336;2023-11-19T12:26:35;14.23;;;3.60;;
16593;SDS011;8410;52.532;13.336;2023-11-19T12:29:04;10.87;;;3.53;;
16593;SDS011;8410;52.532;13.336;2023-11-19T12:31:36;12.57;;;3.43;;
16593;SDS011;8410;52.532;13.336;2023-11-19T12:34:08;16.23;;;4.00;;
16593;SDS011;8410;52.532;13.336;2023-11-19T12:36:39;12.57;;;3.70;;
16593;SDS011;8410;52.532;13.336;2023-11-19T12:39:11;17.40;;;4.20;;
16593;SDS011;8410;52.532;13.336;2023-11-19T12:41:49;13.33;;;3.87;;
16593;SDS011;8410;52.532;13.336;2023-11-19T12:44:23;14.73;;;4.00;;
16593;SDS011;8410;52.532;13.336;2023-11-19T12:47:04;15.10;;;5.03;;
16593;SDS011;8410;52.532;13.336;2023-11-19T12:49:38;14.63;;;4.53;;
16593;SDS011;8410;52.532;13.336;2023-11-19T12:52:21;11.93;;;4.10;;
16593;SDS011;8410;52.532;13.336;2023-11-19T12:54:55;16.27;;;3.70;;
16593;SDS011;8410;52.532;13.336;2023-11-19T12:57:38;11.87;;;3.53;;
16593;SDS011;8410;52.532;13.336;2023-11-19T13:00:18;16.43;;;3.87;;
16593;SDS011;8410;52.532;13.336;2023-11-19T13:02:53;19.07;;;3.90;;
16593;SDS011;8410;52.532;13.336;2023-11-19T13:05:40;16.47;;;4.10;;
16593;SDS011;8410;52.532;13.336;2023-11-19T13:08:09;18.00;;;4.70;;
16593;SDS011;8410;52.532;13.336;2023-11-19T13:10:52;16.13;;;4.33;;
16593;SDS011;8410;52.532;13.336;2023-11-19T13:13:28;17.47;;;4.13;;
16593;SDS011;8410;52.532;13.336;2023-11-19T13:16:01;14.13;;;4.43;;
16593;SDS011;8410;52.532;13.336;2023-11-19T13:18:34;18.93;;;4.53;;
16593;SDS011;8410;52.532;13.336;2023-11-19T13:21:10;20.90;;;5.67;;
16593;SDS011;8410;52.532;13.336;2023-11-19T13:23:43;13.73;;;4.20;;
16593;SDS011;8410;52.532;13.336;2023-11-19T13:26:14;15.40;;;3.80;;
16593;SDS011;8410;52.532;13.336;2023-11-19T13:28:45;16.57;;;4.30;;
16593;SDS011;8410;52.532;13.336;2023-11-19T13:31:16;15.77;;;4.20;;
16593;SDS011;8410;52.532;13.336;2023-11-19T13:33:49;15.83;;;3.97;;
16593;SDS011;8410;52.532;13.336;2023-11-19T13:36:24;17.33;;;4.37;;
16593;SDS011;8410;52.532;13.336;2023-11-19T13:38:55;18.90;;;4.40;;
16593;SDS011;8410;52.532;13.336;2023-11-19T13:41:28;19.60;;;4.83;;
16593;SDS011;8410;52.532;13.336;2023-11-19T13:43:57;18.33;;;3.97;;
16593;SDS011;8410;52.532;13.336;2023-11-19T13:46:52;12.60;;;4.37;;
16593;SDS011;8410;52.532;13.336;2023-11-19T13:49:23;14.37;;;3.87;;
16593;SDS011;8410;52.532;13.336;2023-11-19T13:51:54;18.23;;;5.00;;
16593;SDS011;8410;52.532;13.336;2023-11-19T13:54:28;18.37;;;4.30;;
16593;SDS011;8410;52.532;13.336;2023-11-19T13:56:57;20.90;;;4.87;;
16593;SDS011;8410;52.532;13.336;2023-11-19T13:59:30;17.37;;;3.93;;
16593;SDS011;8410;52.532;13.336;2023-11-19T14:02:08;19.40;;;4.80;;
16593;SDS011;8410;52.532;13.336;2023-11-19T14:04:42;14.00;;;4.07;;
16593;SDS011;8410;52.532;13.336;2023-11-19T14:07:14;20.93;;;4.77;;
16593;SDS011;8410;52.532;13.336;2023-11-19T14:09:42;15.87;;;4.43;;
16593;SDS011;8410;52.532;13.336;2023-11-19T14:12:12;19.90;;;6.27;;
16593;SDS011;8410;52.532;13.336;2023-11-19T14:14:46;17.70;;;4.87;;
16593;SDS011;8410;52.532;13.336;2023-11-19T14:17:20;22.53;;;5.67;;
16593;SDS011;8410;52.532;13.336;2023-11-19T14:19:52;18.97;;;5.90;;
16593;SDS011;8410;52.532;13.336;2023-11-19T14:22:24;19.20;;;5.47;;
16593;SDS011;8410;52.532;13.336;2023-11-19T14:24:54;19.73;;;6.07;;
16593;SDS011;8410;52.532;13.336;2023-11-19T14:27:22;18.60;;;5.83;;
16593;SDS011;8410;52.532;13.336;2023-11-19T14:29:50;18.40;;;4.50;;
16593;SDS011;8410;52.532;13.336;2023-11-19T14:32:18;21.30;;;4.80;;
16593;SDS011;8410;52.532;13.336;2023-11-19T14:34:47;16.40;;;4.63;;
16593;SDS011;8410;52.532;13.336;2023-11-19T14:37:14;20.33;;;4.70;;
16593;SDS011;8410;52.532;13.336;2023-11-19T14:39:42;21.03;;;5.30;;
16593;SDS011;8410;52.532;13.336;2023-11-19T14:42:12;18.87;;;4.90;;
16593;SDS011;8410;52.532;13.336;2023-11-19T14:44:40;18.30;;;4.90;;
16593;SDS011;8410;52.532;13.336;2023-11-19T14:47:07;20.63;;;5.03;;
16593;SDS011;8410;52.532;13.336;2023-11-19T14:49:36;21.93;;;4.33;;
16593;SDS011;8410;52.532;13.336;2023-11-19T14:52:05;19.70;;;4.53;;
16593;SDS011;8410;52.532;13.336;2023-11-19T14:54:35;20.33;;;4.33;;
16593;SDS011;8410;52.532;13.336;2023-11-19T14:57:04;18.70;;;5.20;;
16593;SDS011;8410;52.532;13.336;2023-11-19T14:59:34;22.73;;;4.67;;